sensor_id;sensor_type;location;lat;lon;timestamp;pressure;altitude;pressure_sealevel;temperature;humidity
76603;BME280;65075;48.390;17.598;2024-01-11T00:01:29;101156.88;;;-0.93;51.32
76603;BME280;65075;48.390;17.598;2024-01-11T00:03:56;101153.13;;;-0.15;49.45
76603;BME280;65075;48.390;17.598;2024-01-11T00:06:22;101161.88;;;-1.33;51.91
76603;BME280;65075;48.390;17.598;2024-01-11T00:08:49;101157.75;;;-1.10;51.12
76603;BME280;65075;48.390;17.598;2024-01-11T00:11:15;101168.81;;;-1.05;49.78
76603;BME280;65075;48.390;17.598;2024-01-11T00:13:42;101172.41;;;-0.45;48.90
76603;BME280;65075;48.390;17.598;2024-01-11T00:16:09;101157.56;;;0.11;46.99
76603;BME280;65075;48.390;17.598;2024-01-11T00:18:37;101157.16;;;0.72;46.53
76603;BME280;65075;48.390;17.598;2024-01-11T00:21:04;101154.97;;;0.83;46.48
76603;BME280;65075;48.390;17.598;2024-01-11T00:23:31;101151.09;;;1.42;44.23
76603;BME280;65075;48.390;17.598;2024-01-11T00:25:57;101157.59;;;1.56;43.61
76603;BME280;65075;48.390;17.598;2024-01-11T00:28:26;101152.41;;;1.38;43.98
76603;BME280;65075;48.390;17.598;2024-01-11T00:30:52;101143.84;;;1.51;43.76
76603;BME280;65075;48.390;17.598;2024-01-11T00:33:19;101135.97;;;1.33;43.90
76603;BME280;65075;48.390;17.598;2024-01-11T00:35:46;101129.63;;;1.02;44.96
76603;BME280;65075;48.390;17.598;2024-01-11T00:38:11;101136.69;;;0.95;44.41
76603;BME280;65075;48.390;17.598;2024-01-11T00:40:38;101137.03;;;0.76;46.20
76603;BME280;65075;48.390;17.598;2024-01-11T00:43:05;101134.38;;;1.55;43.60
76603;BME280;65075;48.390;17.598;2024-01-11T00:45:32;101148.13;;;0.65;46.26
76603;BME280;65075;48.390;17.598;2024-01-11T00:47:58;101122.41;;;1.73;43.18
76603;BME280;65075;48.390;17.598;2024-01-11T00:50:25;101137.00;;;1.16;44.47
76603;BME280;65075;48.390;17.598;2024-01-11T00:52:52;101145.41;;;0.48;46.26
76603;BME280;65075;48.390;17.598;2024-01-11T00:55:19;101138.00;;;-0.57;48.38
76603;BME280;65075;48.390;17.598;2024-01-11T00:57:46;101076.59;;;-1.28;51.20
76603;BME280;65075;48.390;17.598;2024-01-11T01:00:13;101140.69;;;-0.83;49.56
76603;BME280;65075;48.390;17.598;2024-01-11T01:02:42;101129.31;;;0.48;46.50
76603;BME280;65075;48.390;17.598;2024-01-11T01:05:09;101134.34;;;0.68;46.25
76603;BME280;65075;48.390;17.598;2024-01-11T01:07:36;101128.97;;;0.84;45.89
76603;BME280;65075;48.390;17.598;2024-01-11T01:10:03;101127.25;;;0.34;47.05
76603;BME280;65075;48.390;17.598;2024-01-11T01:12:32;101127.94;;;0.61;46.31
76603;BME280;65075;48.390;17.598;2024-01-11T01:14:58;101121.97;;;0.00;47.50
76603;BME280;65075;48.390;17.598;2024-01-11T01:17:25;101126.16;;;-0.05;47.52
76603;BME280;65075;48.390;17.598;2024-01-11T01:19:51;101098.00;;;-1.89;51.82
76603;BME280;65075;48.390;17.598;2024-01-11T01:22:18;101132.44;;;-2.04;53.33
76603;BME280;65075;48.390;17.598;2024-01-11T01:24:45;101097.00;;;-1.09;51.61
76603;BME280;65075;48.390;17.598;2024-01-11T01:27:12;101121.38;;;-0.95;50.33
76603;BME280;65075;48.390;17.598;2024-01-11T01:29:39;101126.91;;;0.29;46.95
76603;BME280;65075;48.390;17.598;2024-01-11T01:32:06;101106.59;;;0.19;47.32
76603;BME280;65075;48.390;17.598;2024-01-11T01:34:33;101131.94;;;-0.60;48.86
76603;BME280;65075;48.390;17.598;2024-01-11T01:37:00;101116.03;;;-0.61;48.67
76603;BME280;65075;48.390;17.598;2024-01-11T01:39:26;101099.13;;;-0.62;49.09
76603;BME280;65075;48.390;17.598;2024-01-11T01:41:52;101063.81;;;-0.83;48.42
76603;BME280;65075;48.390;17.598;2024-01-11T01:44:19;101116.19;;;-1.57;52.11
76603;BME280;65075;48.390;17.598;2024-01-11T01:46:51;101122.91;;;-0.59;48.92
76603;BME280;65075;48.390;17.598;2024-01-11T01:49:17;101104.41;;;-1.64;52.06
76603;BME280;65075;48.390;17.598;2024-01-11T01:51:51;101092.09;;;-1.93;51.77
76603;BME280;65075;48.390;17.598;2024-01-11T01:54:22;101095.63;;;-0.12;47.83
76603;BME280;65075;48.390;17.598;2024-01-11T01:56:50;101090.09;;;-1.38;50.40
76603;BME280;65075;48.390;17.598;2024-01-11T01:59:20;101099.09;;;-0.20;48.01
76603;BME280;65075;48.390;17.598;2024-01-11T02:01:47;101091.03;;;0.79;45.35
76603;BME280;65075;48.390;17.598;2024-01-11T02:04:14;101076.44;;;0.33;46.13
76603;BME280;65075;48.390;17.598;2024-01-11T02:06:44;101099.09;;;0.63;45.74
76603;BME280;65075;48.390;17.598;2024-01-11T02:09:13;101069.56;;;-1.29;49.13
76603;BME280;65075;48.390;17.598;2024-01-11T02:11:44;101090.34;;;0.28;46.49
76603;BME280;65075;48.390;17.598;2024-01-11T02:14:11;101053.06;;;-2.48;52.52
76603;BME280;65075;48.390;17.598;2024-01-11T02:16:37;101082.06;;;-0.52;48.65
76603;BME280;65075;48.390;17.598;2024-01-11T02:19:07;101055.53;;;-1.49;50.59
76603;BME280;65075;48.390;17.598;2024-01-11T02:21:38;101071.59;;;-0.72;48.92
76603;BME280;65075;48.390;17.598;2024-01-11T02:24:07;101038.91;;;-1.09;49.73
76603;BME280;65075;48.390;17.598;2024-01-11T02:26:34;101068.72;;;-0.78;50.11
76603;BME280;65075;48.390;17.598;2024-01-11T02:29:01;101058.13;;;0.12;46.78
76603;BME280;65075;48.390;17.598;2024-01-11T02:31:28;101061.50;;;0.63;45.49
76603;BME280;65075;48.390;17.598;2024-01-11T02:33:56;101037.59;;;-0.29;48.16
76603;BME280;65075;48.390;17.598;2024-01-11T02:36:23;100997.09;;;0.14;45.69
76603;BME280;65075;48.390;17.598;2024-01-11T02:38:53;101048.16;;;-0.20;47.28
76603;BME280;65075;48.390;17.598;2024-01-11T02:41:20;101045.13;;;-1.08;49.82
76603;BME280;65075;48.390;17.598;2024-01-11T02:43:50;101032.28;;;0.68;46.02
76603;BME280;65075;48.390;17.598;2024-01-11T02:46:18;101015.69;;;0.24;46.87
76603;BME280;65075;48.390;17.598;2024-01-11T02:48:44;101021.91;;;0.16;46.61
76603;BME280;65075;48.390;17.598;2024-01-11T02:51:11;101028.56;;;0.69;45.52
76603;BME280;65075;48.390;17.598;2024-01-11T02:53:38;101019.88;;;0.02;46.18
76603;BME280;65075;48.390;17.598;2024-01-11T02:56:05;101009.94;;;-1.39;49.16
76603;BME280;65075;48.390;17.598;2024-01-11T02:58:32;101009.63;;;-1.36;48.94
76603;BME280;65075;48.390;17.598;2024-01-11T03:00:58;101005.59;;;-3.09;54.82
76603;BME280;65075;48.390;17.598;2024-01-11T03:03:25;101001.84;;;-1.47;50.13
76603;BME280;65075;48.390;17.598;2024-01-11T03:05:52;101017.19;;;0.02;47.20
76603;BME280;65075;48.390;17.598;2024-01-11T03:08:19;101006.41;;;-2.54;51.97
76603;BME280;65075;48.390;17.598;2024-01-11T03:10:46;101004.47;;;-1.30;50.42
76603;BME280;65075;48.390;17.598;2024-01-11T03:13:13;101002.09;;;0.17;46.91
76603;BME280;65075;48.390;17.598;2024-01-11T03:15:39;100993.41;;;-0.59;47.39
76603;BME280;65075;48.390;17.598;2024-01-11T03:18:06;101005.59;;;-3.09;53.79
76603;BME280;65075;48.390;17.598;2024-01-11T03:20:33;101006.53;;;-1.49;51.79
76603;BME280;65075;48.390;17.598;2024-01-11T03:23:00;101009.28;;;-1.59;51.15
76603;BME280;65075;48.390;17.598;2024-01-11T03:25:29;100986.00;;;-2.72;52.78
76603;BME280;65075;48.390;17.598;2024-01-11T03:27:57;100958.59;;;-3.02;54.69
76603;BME280;65075;48.390;17.598;2024-01-11T03:30:25;100992.16;;;-3.26;55.74
76603;BME280;65075;48.390;17.598;2024-01-11T03:32:52;100981.13;;;-3.51;56.71
76603;BME280;65075;48.390;17.598;2024-01-11T03:35:20;100986.56;;;-4.18;58.13
76603;BME280;65075;48.390;17.598;2024-01-11T03:37:46;100976.59;;;-3.96;58.68
76603;BME280;65075;48.390;17.598;2024-01-11T03:40:13;100958.03;;;-2.96;53.67
76603;BME280;65075;48.390;17.598;2024-01-11T03:42:42;100983.69;;;-3.59;55.34
76603;BME280;65075;48.390;17.598;2024-01-11T03:45:09;100938.09;;;-5.09;59.50
76603;BME280;65075;48.390;17.598;2024-01-11T03:47:35;100969.25;;;-4.81;60.85
76603;BME280;65075;48.390;17.598;2024-01-11T03:50:02;100955.41;;;-4.08;57.94
76603;BME280;65075;48.390;17.598;2024-01-11T03:52:31;100977.53;;;-4.65;59.53
76603;BME280;65075;48.390;17.598;2024-01-11T03:54:56;100972.94;;;-5.12;62.07
76603;BME280;65075;48.390;17.598;2024-01-11T03:57:23;100980.91;;;-3.76;58.67
76603;BME280;65075;48.390;17.598;2024-01-11T03:59:50;100979.97;;;-4.52;59.03
76603;BME280;65075;48.390;17.598;2024-01-11T04:02:16;100982.19;;;-4.57;58.88
76603;BME280;65075;48.390;17.598;2024-01-11T04:04:43;100983.63;;;-5.42;62.82
76603;BME280;65075;48.390;17.598;2024-01-11T04:07:10;100970.31;;;-4.15;59.15
76603;BME280;65075;48.390;17.598;2024-01-11T04:09:40;100981.31;;;-4.67;60.00
76603;BME280;65075;48.390;17.598;2024-01-11T04:12:07;100975.22;;;-5.38;62.83
76603;BME280;65075;48.390;17.598;2024-01-11T04:14:38;100979.06;;;-4.81;60.88
76603;BME280;65075;48.390;17.598;2024-01-11T04:17:06;100972.81;;;-5.10;61.14
76603;BME280;65075;48.390;17.598;2024-01-11T04:19:33;100979.13;;;-5.11;63.18
76603;BME280;65075;48.390;17.598;2024-01-11T04:21:59;100983.00;;;-4.85;60.66
76603;BME280;65075;48.390;17.598;2024-01-11T04:24:26;100987.38;;;-5.05;62.49
76603;BME280;65075;48.390;17.598;2024-01-11T04:26:53;100985.91;;;-4.88;61.58
76603;BME280;65075;48.390;17.598;2024-01-11T04:29:19;100985.16;;;-4.41;60.79
76603;BME280;65075;48.390;17.598;2024-01-11T04:31:46;100980.44;;;-3.43;56.10
76603;BME280;65075;48.390;17.598;2024-01-11T04:34:13;100986.38;;;-3.68;56.81
76603;BME280;65075;48.390;17.598;2024-01-11T04:36:40;100983.03;;;-3.89;58.86
76603;BME280;65075;48.390;17.598;2024-01-11T04:39:07;100981.06;;;-4.64;60.98
76603;BME280;65075;48.390;17.598;2024-01-11T04:41:35;100974.63;;;-4.04;58.91
76603;BME280;65075;48.390;17.598;2024-01-11T04:44:03;100942.03;;;-3.05;57.04
76603;BME280;65075;48.390;17.598;2024-01-11T04:46:31;100969.38;;;-2.66;55.22
76603;BME280;65075;48.390;17.598;2024-01-11T04:48:57;100972.47;;;-2.26;53.25
76603;BME280;65075;48.390;17.598;2024-01-11T04:51:24;100972.22;;;-2.50;54.76
76603;BME280;65075;48.390;17.598;2024-01-11T04:53:51;100979.47;;;-1.90;52.50
76603;BME280;65075;48.390;17.598;2024-01-11T04:56:17;100972.47;;;-0.72;49.44
76603;BME280;65075;48.390;17.598;2024-01-11T04:58:45;100949.69;;;-3.47;54.32
76603;BME280;65075;48.390;17.598;2024-01-11T05:01:17;100990.63;;;-2.47;53.71
76603;BME280;65075;48.390;17.598;2024-01-11T05:03:46;100970.78;;;-1.66;50.77
76603;BME280;65075;48.390;17.598;2024-01-11T05:06:22;100971.22;;;-4.73;57.78
76603;BME280;65075;48.390;17.598;2024-01-11T05:08:51;100978.00;;;-4.50;58.53
76603;BME280;65075;48.390;17.598;2024-01-11T05:11:22;100976.88;;;-4.38;59.65
76603;BME280;65075;48.390;17.598;2024-01-11T05:13:51;100966.34;;;-2.36;53.28
76603;BME280;65075;48.390;17.598;2024-01-11T05:16:27;100973.66;;;-3.37;55.25
76603;BME280;65075;48.390;17.598;2024-01-11T05:18:56;100969.97;;;-3.27;54.58
76603;BME280;65075;48.390;17.598;2024-01-11T05:21:23;100911.84;;;-3.33;54.45
76603;BME280;65075;48.390;17.598;2024-01-11T05:23:51;100966.72;;;-1.96;52.00
76603;BME280;65075;48.390;17.598;2024-01-11T05:26:20;100964.81;;;-1.34;50.57
76603;BME280;65075;48.390;17.598;2024-01-11T05:28:47;100970.63;;;-2.43;53.89
76603;BME280;65075;48.390;17.598;2024-01-11T05:31:15;100978.56;;;-2.51;52.93
76603;BME280;65075;48.390;17.598;2024-01-11T05:33:43;100979.22;;;-3.21;55.82
76603;BME280;65075;48.390;17.598;2024-01-11T05:36:10;100983.69;;;-1.61;51.07
76603;BME280;65075;48.390;17.598;2024-01-11T05:38:38;100967.19;;;-2.00;52.10
76603;BME280;65075;48.390;17.598;2024-01-11T05:41:05;100965.91;;;-1.11;49.53
76603;BME280;65075;48.390;17.598;2024-01-11T05:43:32;100957.53;;;-1.93;51.38
76603;BME280;65075;48.390;17.598;2024-01-11T05:45:58;100973.78;;;-3.29;56.25
76603;BME280;65075;48.390;17.598;2024-01-11T05:48:25;100965.25;;;-3.42;55.52
76603;BME280;65075;48.390;17.598;2024-01-11T05:50:52;100958.63;;;-1.60;51.47
76603;BME280;65075;48.390;17.598;2024-01-11T05:53:19;100950.78;;;-1.54;50.87
76603;BME280;65075;48.390;17.598;2024-01-11T05:55:47;100937.91;;;-0.83;48.55
76603;BME280;65075;48.390;17.598;2024-01-11T05:58:15;100942.84;;;-1.12;48.86
76603;BME280;65075;48.390;17.598;2024-01-11T06:00:40;100946.75;;;-5.16;58.13
76603;BME280;65075;48.390;17.598;2024-01-11T06:03:08;100959.63;;;-3.95;56.97
76603;BME280;65075;48.390;17.598;2024-01-11T06:05:35;100953.16;;;-2.82;53.77
76603;BME280;65075;48.390;17.598;2024-01-11T06:08:02;100956.81;;;-2.39;52.79
76603;BME280;65075;48.390;17.598;2024-01-11T06:10:29;100963.84;;;-2.82;54.65
76603;BME280;65075;48.390;17.598;2024-01-11T06:12:57;100931.72;;;-1.25;49.19
76603;BME280;65075;48.390;17.598;2024-01-11T06:15:24;100952.13;;;-2.99;53.36
76603;BME280;65075;48.390;17.598;2024-01-11T06:17:51;100916.13;;;-3.22;52.80
76603;BME280;65075;48.390;17.598;2024-01-11T06:20:17;100970.81;;;-2.72;51.68
76603;BME280;65075;48.390;17.598;2024-01-11T06:22:44;100964.28;;;-2.07;51.42
76603;BME280;65075;48.390;17.598;2024-01-11T06:25:11;100973.03;;;-1.97;49.86
76603;BME280;65075;48.390;17.598;2024-01-11T06:27:37;100961.59;;;-2.07;51.19
76603;BME280;65075;48.390;17.598;2024-01-11T06:30:05;100942.09;;;-1.22;48.34
76603;BME280;65075;48.390;17.598;2024-01-11T06:32:33;100979.47;;;-0.71;48.10
76603;BME280;65075;48.390;17.598;2024-01-11T06:35:00;100968.16;;;-1.32;48.74
76603;BME280;65075;48.390;17.598;2024-01-11T06:37:29;100984.91;;;-0.54;46.35
76603;BME280;65075;48.390;17.598;2024-01-11T06:39:57;100928.81;;;-1.65;48.30
76603;BME280;65075;48.390;17.598;2024-01-11T06:42:24;100974.63;;;-3.02;51.18
76603;BME280;65075;48.390;17.598;2024-01-11T06:44:50;100969.13;;;-1.85;49.26
76603;BME280;65075;48.390;17.598;2024-01-11T06:47:17;100973.13;;;-0.70;47.58
76603;BME280;65075;48.390;17.598;2024-01-11T06:49:44;100971.66;;;-1.06;48.35
76603;BME280;65075;48.390;17.598;2024-01-11T06:52:12;100951.88;;;-1.90;49.88
76603;BME280;65075;48.390;17.598;2024-01-11T06:54:39;100975.81;;;-1.11;48.66
76603;BME280;65075;48.390;17.598;2024-01-11T06:57:06;100977.25;;;-0.25;46.58
76603;BME280;65075;48.390;17.598;2024-01-11T06:59:33;100969.91;;;-1.49;47.99
76603;BME280;65075;48.390;17.598;2024-01-11T07:02:00;100972.16;;;-1.36;48.89
76603;BME280;65075;48.390;17.598;2024-01-11T07:04:29;100994.94;;;-2.91;53.58
76603;BME280;65075;48.390;17.598;2024-01-11T07:06:55;100961.53;;;-1.97;51.38
76603;BME280;65075;48.390;17.598;2024-01-11T07:09:22;100952.97;;;-0.90;47.49
76603;BME280;65075;48.390;17.598;2024-01-11T07:11:49;100955.78;;;-0.41;47.10
76603;BME280;65075;48.390;17.598;2024-01-11T07:14:15;100975.59;;;-0.26;46.45
76603;BME280;65075;48.390;17.598;2024-01-11T07:16:42;100955.44;;;-0.46;47.88
76603;BME280;65075;48.390;17.598;2024-01-11T07:19:09;100951.16;;;-1.23;49.10
76603;BME280;65075;48.390;17.598;2024-01-11T07:21:37;100945.00;;;-1.93;50.34
76603;BME280;65075;48.390;17.598;2024-01-11T07:24:04;100951.81;;;-1.21;48.89
76603;BME280;65075;48.390;17.598;2024-01-11T07:26:31;100950.00;;;-0.71;48.43
76603;BME280;65075;48.390;17.598;2024-01-11T07:28:58;100952.94;;;-1.83;50.27
76603;BME280;65075;48.390;17.598;2024-01-11T07:31:23;100951.13;;;0.25;46.32
76603;BME280;65075;48.390;17.598;2024-01-11T07:33:50;100944.00;;;-0.57;46.84
76603;BME280;65075;48.390;17.598;2024-01-11T07:36:18;100944.41;;;-0.11;46.48
76603;BME280;65075;48.390;17.598;2024-01-11T07:38:44;100931.69;;;0.07;46.06
76603;BME280;65075;48.390;17.598;2024-01-11T07:41:11;100891.06;;;1.43;43.15
76603;BME280;65075;48.390;17.598;2024-01-11T07:43:38;100928.19;;;0.78;43.99
76603;BME280;65075;48.390;17.598;2024-01-11T07:46:05;100930.31;;;0.03;45.23
76603;BME280;65075;48.390;17.598;2024-01-11T07:48:33;100947.44;;;0.10;44.93
76603;BME280;65075;48.390;17.598;2024-01-11T07:51:00;100941.38;;;-0.24;47.50
76603;BME280;65075;48.390;17.598;2024-01-11T07:53:26;100940.66;;;1.94;42.70
76603;BME280;65075;48.390;17.598;2024-01-11T07:55:53;100943.69;;;0.60;44.70
76603;BME280;65075;48.390;17.598;2024-01-11T07:58:20;100947.50;;;0.73;44.69
76603;BME280;65075;48.390;17.598;2024-01-11T08:00:48;100945.78;;;0.80;45.95
76603;BME280;65075;48.390;17.598;2024-01-11T08:03:15;100940.16;;;0.59;45.83
76603;BME280;65075;48.390;17.598;2024-01-11T08:05:42;100923.97;;;0.28;45.96
76603;BME280;65075;48.390;17.598;2024-01-11T08:08:11;100928.63;;;0.42;46.62
76603;BME280;65075;48.390;17.598;2024-01-11T08:10:37;100919.06;;;2.39;42.20
76603;BME280;65075;48.390;17.598;2024-01-11T08:13:04;100918.75;;;1.51;42.96
76603;BME280;65075;48.390;17.598;2024-01-11T08:15:31;100913.44;;;0.74;45.37
76603;BME280;65075;48.390;17.598;2024-01-11T08:17:57;100897.59;;;1.94;43.35
76603;BME280;65075;48.390;17.598;2024-01-11T08:20:24;100909.00;;;2.33;42.68
76603;BME280;65075;48.390;17.598;2024-01-11T08:22:51;100915.41;;;1.95;43.01
76603;BME280;65075;48.390;17.598;2024-01-11T08:25:18;100908.72;;;2.28;42.33
76603;BME280;65075;48.390;17.598;2024-01-11T08:27:45;100908.72;;;1.68;43.42
76603;BME280;65075;48.390;17.598;2024-01-11T08:30:12;100914.94;;;3.31;40.63
76603;BME280;65075;48.390;17.598;2024-01-11T08:32:39;100904.50;;;2.11;42.54
76603;BME280;65075;48.390;17.598;2024-01-11T08:35:09;100901.31;;;2.45;43.33
76603;BME280;65075;48.390;17.598;2024-01-11T08:37:38;100884.00;;;3.48;40.48
76603;BME280;65075;48.390;17.598;2024-01-11T08:40:08;100889.69;;;4.57;38.28
76603;BME280;65075;48.390;17.598;2024-01-11T08:42:35;100889.66;;;4.51;38.51
76603;BME280;65075;48.390;17.598;2024-01-11T08:45:04;100892.78;;;4.48;38.55
76603;BME280;65075;48.390;17.598;2024-01-11T08:47:34;100869.13;;;4.91;38.85
76603;BME280;65075;48.390;17.598;2024-01-11T08:50:01;100885.16;;;3.39;40.82
76603;BME280;65075;48.390;17.598;2024-01-11T08:52:32;100876.31;;;4.77;39.14
76603;BME280;65075;48.390;17.598;2024-01-11T08:55:00;100833.53;;;2.92;42.66
76603;BME280;65075;48.390;17.598;2024-01-11T08:57:27;100867.94;;;3.25;41.32
76603;BME280;65075;48.390;17.598;2024-01-11T08:59:53;100866.97;;;3.47;41.81
76603;BME280;65075;48.390;17.598;2024-01-11T09:02:21;100854.84;;;4.35;39.61
76603;BME280;65075;48.390;17.598;2024-01-11T09:04:47;100847.53;;;6.23;35.74
76603;BME280;65075;48.390;17.598;2024-01-11T09:07:15;100841.47;;;6.15;36.18
76603;BME280;65075;48.390;17.598;2024-01-11T09:09:42;100837.69;;;5.63;37.35
76603;BME280;65075;48.390;17.598;2024-01-11T09:12:09;100818.63;;;4.63;37.44
76603;BME280;65075;48.390;17.598;2024-01-11T09:14:35;100771.66;;;5.45;37.00
76603;BME280;65075;48.390;17.598;2024-01-11T09:17:02;100806.66;;;4.79;37.84
76603;BME280;65075;48.390;17.598;2024-01-11T09:19:32;100815.34;;;2.94;42.36
76603;BME280;65075;48.390;17.598;2024-01-11T09:22:04;100815.25;;;3.44;41.10
76603;BME280;65075;48.390;17.598;2024-01-11T09:24:30;100805.38;;;5.49;38.51
76603;BME280;65075;48.390;17.598;2024-01-11T09:26:57;100797.25;;;3.09;41.72
76603;BME280;65075;48.390;17.598;2024-01-11T09:29:24;100808.66;;;2.89;42.28
76603;BME280;65075;48.390;17.598;2024-01-11T09:31:50;100799.63;;;4.44;40.80
76603;BME280;65075;48.390;17.598;2024-01-11T09:34:17;100762.56;;;4.79;38.35
76603;BME280;65075;48.390;17.598;2024-01-11T09:36:44;100797.31;;;6.08;38.29
76603;BME280;65075;48.390;17.598;2024-01-11T09:39:11;100798.53;;;6.89;35.54
76603;BME280;65075;48.390;17.598;2024-01-11T09:41:43;100801.63;;;6.42;36.02
76603;BME280;65075;48.390;17.598;2024-01-11T09:44:15;100809.13;;;5.54;37.59
76603;BME280;65075;48.390;17.598;2024-01-11T09:46:42;100804.53;;;6.47;37.40
76603;BME280;65075;48.390;17.598;2024-01-11T09:49:10;100797.47;;;5.41;39.57
76603;BME280;65075;48.390;17.598;2024-01-11T09:51:39;100801.66;;;5.63;38.80
76603;BME280;65075;48.390;17.598;2024-01-11T09:54:08;100808.69;;;5.25;41.06
76603;BME280;65075;48.390;17.598;2024-01-11T09:56:37;100802.06;;;5.60;39.65
76603;BME280;65075;48.390;17.598;2024-01-11T09:59:05;100789.59;;;4.38;42.63
76603;BME280;65075;48.390;17.598;2024-01-11T10:01:33;100781.16;;;5.14;40.45
76603;BME280;65075;48.390;17.598;2024-01-11T10:04:02;100798.78;;;4.43;41.56
76603;BME280;65075;48.390;17.598;2024-01-11T10:06:32;100781.03;;;5.36;39.84
76603;BME280;65075;48.390;17.598;2024-01-11T10:08:59;100787.63;;;4.59;40.02
76603;BME280;65075;48.390;17.598;2024-01-11T10:11:27;100785.00;;;5.79;38.45
76603;BME280;65075;48.390;17.598;2024-01-11T10:13:57;100780.75;;;6.49;36.99
76603;BME280;65075;48.390;17.598;2024-01-11T10:16:28;100788.41;;;7.09;35.48
76603;BME280;65075;48.390;17.598;2024-01-11T10:19:01;100760.97;;;6.35;37.71
76603;BME280;65075;48.390;17.598;2024-01-11T10:21:28;100770.13;;;6.41;37.27
76603;BME280;65075;48.390;17.598;2024-01-11T10:23:58;100779.41;;;7.15;35.79
76603;BME280;65075;48.390;17.598;2024-01-11T10:26:28;100787.66;;;7.89;34.65
76603;BME280;65075;48.390;17.598;2024-01-11T10:28:59;100771.66;;;5.84;39.56
76603;BME280;65075;48.390;17.598;2024-01-11T10:31:48;100759.38;;;7.16;37.25
76603;BME280;65075;48.390;17.598;2024-01-11T10:34:14;100734.81;;;6.67;37.37
76603;BME280;65075;48.390;17.598;2024-01-11T10:36:40;100741.66;;;6.12;37.87
76603;BME280;65075;48.390;17.598;2024-01-11T10:39:08;100755.66;;;6.66;36.59
76603;BME280;65075;48.390;17.598;2024-01-11T10:41:40;100751.63;;;7.76;34.71
76603;BME280;65075;48.390;17.598;2024-01-11T10:44:20;100749.88;;;8.06;34.49
76603;BME280;65075;48.390;17.598;2024-01-11T10:46:49;100748.03;;;7.50;34.51
76603;BME280;65075;48.390;17.598;2024-01-11T10:49:19;100741.38;;;7.53;36.40
76603;BME280;65075;48.390;17.598;2024-01-11T10:52:08;100723.16;;;5.69;40.53
76603;BME280;65075;48.390;17.598;2024-01-11T10:54:48;100715.25;;;7.52;35.80
76603;BME280;65075;48.390;17.598;2024-01-11T10:57:16;100685.00;;;5.71;37.39
76603;BME280;65075;48.390;17.598;2024-01-11T10:59:44;100731.50;;;6.58;36.68
76603;BME280;65075;48.390;17.598;2024-01-11T11:02:12;100736.75;;;7.54;36.18
76603;BME280;65075;48.390;17.598;2024-01-11T11:04:42;100719.13;;;6.24;38.12
76603;BME280;65075;48.390;17.598;2024-01-11T11:07:09;100718.94;;;8.07;34.36
76603;BME280;65075;48.390;17.598;2024-01-11T11:09:37;100706.97;;;8.08;35.36
76603;BME280;65075;48.390;17.598;2024-01-11T11:12:07;100707.69;;;8.88;33.58
76603;BME280;65075;48.390;17.598;2024-01-11T11:14:36;100721.03;;;7.06;36.78
76603;BME280;65075;48.390;17.598;2024-01-11T11:17:05;100697.66;;;7.79;35.00
76603;BME280;65075;48.390;17.598;2024-01-11T11:19:32;100701.25;;;7.98;36.55
76603;BME280;65075;48.390;17.598;2024-01-11T11:21:58;100690.19;;;9.25;34.25
76603;BME280;65075;48.390;17.598;2024-01-11T11:24:25;100698.97;;;7.27;37.85
76603;BME280;65075;48.390;17.598;2024-01-11T11:26:52;100695.03;;;5.90;40.83
76603;BME280;65075;48.390;17.598;2024-01-11T11:29:19;100693.47;;;6.71;39.03
76603;BME280;65075;48.390;17.598;2024-01-11T11:31:46;100697.72;;;6.92;38.86
76603;BME280;65075;48.390;17.598;2024-01-11T11:34:42;100694.03;;;7.67;38.84
76603;BME280;65075;48.390;17.598;2024-01-11T11:37:10;100691.16;;;7.06;39.29
76603;BME280;65075;48.390;17.598;2024-01-11T11:39:37;100683.16;;;7.18;39.46
76603;BME280;65075;48.390;17.598;2024-01-11T11:42:05;100679.22;;;5.35;43.52
76603;BME280;65075;48.390;17.598;2024-01-11T11:44:32;100679.84;;;6.40;40.48
76603;BME280;65075;48.390;17.598;2024-01-11T11:47:20;100677.97;;;5.70;41.80
76603;BME280;65075;48.390;17.598;2024-01-11T11:50:08;100688.28;;;7.01;37.16
76603;BME280;65075;48.390;17.598;2024-01-11T11:52:41;100685.03;;;5.32;39.21
76603;BME280;65075;48.390;17.598;2024-01-11T11:55:12;100687.56;;;5.13;39.58
76603;BME280;65075;48.390;17.598;2024-01-11T11:57:42;100670.50;;;5.33;39.84
76603;BME280;65075;48.390;17.598;2024-01-11T12:00:10;100643.00;;;5.62;39.24
76603;BME280;65075;48.390;17.598;2024-01-11T12:02:39;100598.97;;;5.93;38.01
76603;BME280;65075;48.390;17.598;2024-01-11T12:05:05;100634.03;;;6.32;37.32
76603;BME280;65075;48.390;17.598;2024-01-11T12:07:32;100650.91;;;6.72;37.51
76603;BME280;65075;48.390;17.598;2024-01-11T12:09:59;100624.03;;;5.55;38.73
76603;BME280;65075;48.390;17.598;2024-01-11T12:12:28;100635.72;;;5.43;38.80
76603;BME280;65075;48.390;17.598;2024-01-11T12:14:57;100629.22;;;5.57;39.43
76603;BME280;65075;48.390;17.598;2024-01-11T12:17:25;100648.56;;;5.80;38.82
76603;BME280;65075;48.390;17.598;2024-01-11T12:19:53;100640.91;;;5.51;39.21
76603;BME280;65075;48.390;17.598;2024-01-11T12:22:20;100647.47;;;7.14;36.21
76603;BME280;65075;48.390;17.598;2024-01-11T12:24:47;100648.81;;;6.74;36.98
76603;BME280;65075;48.390;17.598;2024-01-11T12:27:14;100647.94;;;6.80;36.83
76603;BME280;65075;48.390;17.598;2024-01-11T12:29:42;100636.31;;;6.73;36.87
76603;BME280;65075;48.390;17.598;2024-01-11T12:32:09;100631.75;;;5.45;39.48
76603;BME280;65075;48.390;17.598;2024-01-11T12:34:39;100632.97;;;5.69;38.15
76603;BME280;65075;48.390;17.598;2024-01-11T12:37:06;100625.47;;;4.59;39.99
76603;BME280;65075;48.390;17.598;2024-01-11T12:39:33;100618.38;;;4.39;40.64
76603;BME280;65075;48.390;17.598;2024-01-11T12:42:00;100603.06;;;5.11;39.82
76603;BME280;65075;48.390;17.598;2024-01-11T12:44:27;100603.03;;;4.66;40.72
76603;BME280;65075;48.390;17.598;2024-01-11T12:46:54;100593.66;;;4.42;40.84
76603;BME280;65075;48.390;17.598;2024-01-11T12:49:22;100597.94;;;4.23;41.19